CEN weather

Ciudad Obregón International Airport
Ciudad Obregón, Sonora, Mexico

Public forecast

Using degrees Celsius for public forecast. Weather courtesy of forecast.io.

Current aviation weather report (METAR) for Ciudad Obregón International Airport

Report is more than 6 hours old.

Retrieved 2020/08/04 00:40 UTC (7 hours ago):

MMCN 040040Z 23008KT 10SM FEW100 SCT200 37/17 A2979 RMK 8/063 HZY CB NE

Aviation forecast (TAF) for Ciudad Obregón International Airport

Retrieved 2020/08/04 06:27 UTC (1 hour ago):

TAF MMCN 040525Z 0406/0506 23005KT P6SM SCT100 BKN200 TEMPO 0406/0409 6SM TSRA BKN020CB FM041800 22010KT P6SM SCT030 FM050300 24005KT P6SM SCT200